createdAt,value
2019-05-01T00:02:36.094Z,99.90
2019-05-01T00:05:14.712Z,99.90
2019-05-01T00:07:43.958Z,99.90
2019-05-01T00:10:14.235Z,99.90
2019-05-01T00:12:43.413Z,99.90
2019-05-01T00:15:13.917Z,99.90
2019-05-01T00:17:43.470Z,99.90
2019-05-01T00:20:13.007Z,99.90
2019-05-01T00:22:42.484Z,99.90
2019-05-01T00:25:11.720Z,99.90
2019-05-01T00:27:40.909Z,99.90
2019-05-01T00:30:12.257Z,99.90
2019-05-01T00:32:41.434Z,99.90
2019-05-01T00:35:10.927Z,99.90
2019-05-01T00:37:40.429Z,99.90
2019-05-01T00:40:09.896Z,99.90
2019-05-01T00:42:39.157Z,99.90
2019-05-01T00:45:08.442Z,99.90
2019-05-01T00:47:37.722Z,99.90
2019-05-01T00:50:07.663Z,99.90
2019-05-01T00:52:36.934Z,99.90
2019-05-01T00:55:24.726Z,99.90
2019-05-01T00:58:13.232Z,99.90
2019-05-01T01:01:04.753Z,99.90
2019-05-01T01:03:34.324Z,99.90
2019-05-01T01:06:03.909Z,99.90
2019-05-01T01:08:33.109Z,99.90
2019-05-01T01:11:02.414Z,99.90
2019-05-01T01:13:31.640Z,99.90
2019-05-01T01:16:00.893Z,99.90
2019-05-01T01:18:30.086Z,99.90
2019-05-01T01:20:59.578Z,99.90
2019-05-01T01:23:29.325Z,99.90
2019-05-01T01:25:58.511Z,99.90
2019-05-01T01:28:28.196Z,99.90
2019-05-01T01:30:57.373Z,99.90
2019-05-01T01:33:26.590Z,99.90
2019-05-01T01:35:55.782Z,99.90
2019-05-01T01:38:25.448Z,99.90
2019-05-01T01:40:54.822Z,99.90
2019-05-01T01:43:42.949Z,99.90
2019-05-01T01:46:14.563Z,99.90
2019-05-01T01:48:43.798Z,99.90
2019-05-01T01:51:13.159Z,99.90
2019-05-01T01:53:42.810Z,99.90
2019-05-01T01:56:12.320Z,99.90
2019-05-01T01:58:42.122Z,99.90
2019-05-01T02:01:49.210Z,99.90
2019-05-01T02:04:49.733Z,99.90
2019-05-01T02:07:19.077Z,99.90
2019-05-01T02:09:48.645Z,99.90
2019-05-01T02:12:18.090Z,99.90
2019-05-01T02:14:47.597Z,99.90
2019-05-01T02:17:16.901Z,99.90
2019-05-01T02:19:46.169Z,99.90
2019-05-01T02:22:15.673Z,99.90
2019-05-01T02:24:44.986Z,99.90
2019-05-01T02:27:19.999Z,99.90
2019-05-01T02:29:53.805Z,99.90
2019-05-01T02:32:25.993Z,99.90
2019-05-01T02:34:56.181Z,99.90
2019-05-01T02:37:26.739Z,99.90
2019-05-01T02:39:58.010Z,99.90
2019-05-01T02:42:30.959Z,99.90
2019-05-01T02:45:02.262Z,99.90
2019-05-01T02:47:35.373Z,99.90
2019-05-01T02:50:08.581Z,99.90
2019-05-01T02:52:39.746Z,99.90
2019-05-01T02:55:19.895Z,99.90
2019-05-01T02:57:49.578Z,99.90
2019-05-01T03:00:19.111Z,99.90
2019-05-01T03:02:48.678Z,99.90
2019-05-01T03:05:18.094Z,99.90
2019-05-01T03:07:47.427Z,99.90
2019-05-01T03:10:18.180Z,99.90
2019-05-01T03:12:50.191Z,99.90
2019-05-01T03:15:21.574Z,99.90
2019-05-01T03:18:00.957Z,99.90
2019-05-01T03:20:46.101Z,99.90
2019-05-01T03:23:27.788Z,99.90
2019-05-01T03:25:57.492Z,99.90
2019-05-01T03:28:27.081Z,99.90
2019-05-01T03:30:56.795Z,99.90
2019-05-01T03:33:26.078Z,99.90
2019-05-01T03:35:55.650Z,99.90
2019-05-01T03:38:25.837Z,99.90
2019-05-01T03:40:55.948Z,99.90
2019-05-01T03:43:27.661Z,99.90
2019-05-01T03:45:57.899Z,99.90
2019-05-01T03:48:27.791Z,99.90
2019-05-01T03:50:57.442Z,99.90
2019-05-01T03:53:27.057Z,99.90
2019-05-01T03:55:56.713Z,99.90
2019-05-01T03:58:26.375Z,99.90
2019-05-01T04:01:13.905Z,99.90
2019-05-01T04:03:49.956Z,99.90
2019-05-01T04:06:21.387Z,99.90
2019-05-01T04:08:50.828Z,99.90
2019-05-01T04:11:20.909Z,99.90
2019-05-01T04:13:50.115Z,99.90
2019-05-01T04:16:21.590Z,99.90
2019-05-01T04:18:50.900Z,99.90
2019-05-01T04:21:22.439Z,99.90
2019-05-01T04:23:51.947Z,99.90
2019-05-01T04:26:21.727Z,99.90
2019-05-01T04:28:56.811Z,99.90
2019-05-01T04:31:50.929Z,99.90
2019-05-01T04:34:39.200Z,99.90
2019-05-01T04:37:11.282Z,99.90
2019-05-01T04:39:40.878Z,99.90
2019-05-01T04:42:10.265Z,99.90
2019-05-01T04:44:40.559Z,99.90
2019-05-01T04:47:10.124Z,99.90
2019-05-01T04:49:39.944Z,99.90
2019-05-01T04:52:09.251Z,99.90
2019-05-01T04:54:38.442Z,99.90
2019-05-01T04:57:07.933Z,99.90
2019-05-01T04:59:37.768Z,99.90
2019-05-01T05:02:09.374Z,99.90
2019-05-01T05:04:39.053Z,99.90
2019-05-01T05:07:08.529Z,99.90
2019-05-01T05:09:42.990Z,99.90
2019-05-01T05:12:24.859Z,99.90
2019-05-01T05:14:59.054Z,99.90
2019-05-01T05:17:28.783Z,99.90
2019-05-01T05:19:58.379Z,99.90
2019-05-01T05:22:27.653Z,99.90
2019-05-01T05:24:57.172Z,99.90
2019-05-01T05:27:26.673Z,99.90
2019-05-01T05:29:58.082Z,99.90
2019-05-01T05:32:30.058Z,99.90
2019-05-01T05:35:00.717Z,99.90
2019-05-01T05:37:35.732Z,99.90
2019-05-01T05:40:05.702Z,99.90
2019-05-01T05:42:35.951Z,99.90
2019-05-01T05:45:05.937Z,99.90
2019-05-01T05:47:36.257Z,99.90
2019-05-01T05:50:06.010Z,99.90
2019-05-01T05:52:45.385Z,99.90
2019-05-01T05:55:34.244Z,99.90
2019-05-01T05:58:28.773Z,99.90
2019-05-01T06:01:22.408Z,99.90
2019-05-01T06:04:16.594Z,99.90
2019-05-01T06:07:06.775Z,99.90
2019-05-01T06:10:07.014Z,99.90
2019-05-01T06:12:48.611Z,99.90
2019-05-01T06:15:41.263Z,99.90
2019-05-01T06:18:22.349Z,99.90
2019-05-01T06:21:02.288Z,99.90
2019-05-01T06:23:52.774Z,99.90
2019-05-01T06:26:32.157Z,99.90
2019-05-01T06:29:03.367Z,99.90
2019-05-01T06:31:34.102Z,99.90
2019-05-01T06:34:03.903Z,99.90
2019-05-01T06:36:33.590Z,99.90
2019-05-01T06:39:06.824Z,99.90
2019-05-01T06:41:43.570Z,99.90
2019-05-01T06:44:44.086Z,99.90
2019-05-01T06:47:33.003Z,99.90
2019-05-01T06:50:25.337Z,99.90
2019-05-01T06:52:55.128Z,99.90
2019-05-01T06:55:27.182Z,99.90
2019-05-01T06:57:58.599Z,99.90
2019-05-01T07:00:27.969Z,99.90
2019-05-01T07:02:58.756Z,99.90
2019-05-01T07:05:28.733Z,99.90
2019-05-01T07:07:58.284Z,99.90
2019-05-01T07:10:31.536Z,99.90
2019-05-01T07:13:04.789Z,99.90
2019-05-01T07:15:32.946Z,99.90
2019-05-01T07:18:03.489Z,99.90
2019-05-01T07:20:51.356Z,99.90
2019-05-01T07:23:21.897Z,99.90
2019-05-01T07:25:52.144Z,99.90
2019-05-01T07:28:22.026Z,99.90
2019-05-01T07:31:19.466Z,99.90
2019-05-01T07:33:51.310Z,99.90
2019-05-01T07:36:20.280Z,99.90
2019-05-01T07:38:50.128Z,99.90
2019-05-01T07:41:19.353Z,99.90
2019-05-01T07:44:07.958Z,99.90
2019-05-01T07:46:56.245Z,99.90
2019-05-01T07:49:52.774Z,99.90
2019-05-01T07:52:24.006Z,99.90
2019-05-01T07:54:54.750Z,99.90
2019-05-01T07:57:24.052Z,99.90
2019-05-01T07:59:58.274Z,99.90
2019-05-01T08:02:25.915Z,99.90
2019-05-01T08:04:56.810Z,99.90
2019-05-01T08:07:27.773Z,99.90
2019-05-01T08:09:57.922Z,99.90
2019-05-01T08:12:27.301Z,99.90
2019-05-01T08:14:56.842Z,99.90
2019-05-01T08:17:28.091Z,99.90
2019-05-01T08:20:16.763Z,99.90
2019-05-01T08:22:46.006Z,99.90
2019-05-01T08:25:15.204Z,99.90
2019-05-01T08:27:56.252Z,99.90
2019-05-01T08:30:47.966Z,99.90
2019-05-01T08:33:35.142Z,99.90
2019-05-01T08:36:06.704Z,99.90
2019-05-01T08:38:36.146Z,99.90
2019-05-01T08:41:05.655Z,99.90
2019-05-01T08:43:36.389Z,99.90
2019-05-01T08:46:24.957Z,99.90
2019-05-01T08:49:11.296Z,99.90
2019-05-01T08:51:41.577Z,99.90
2019-05-01T08:54:11.004Z,99.90
2019-05-01T08:56:40.563Z,99.90
2019-05-01T08:59:10.185Z,99.90
2019-05-01T09:01:39.959Z,99.90
2019-05-01T09:04:13.188Z,99.90
2019-05-01T09:06:43.793Z,99.90
2019-05-01T09:09:11.826Z,99.90
2019-05-01T09:11:42.423Z,99.90
2019-05-01T09:14:12.058Z,99.90
2019-05-01T09:16:41.417Z,99.90
2019-05-01T09:19:11.213Z,99.90
2019-05-01T09:21:40.868Z,99.90
2019-05-01T09:24:10.207Z,99.90
2019-05-01T09:26:59.118Z,99.90
2019-05-01T09:29:35.030Z,99.90
2019-05-01T09:32:09.692Z,99.90
2019-05-01T09:34:36.127Z,99.90
2019-05-01T09:37:05.942Z,99.90
2019-05-01T09:39:35.825Z,99.90
2019-05-01T09:42:06.685Z,99.90
2019-05-01T09:44:36.512Z,99.90
2019-05-01T09:47:06.971Z,99.90
2019-05-01T09:49:36.550Z,99.90
2019-05-01T09:52:32.162Z,99.90
2019-05-01T09:55:23.104Z,99.90
2019-05-01T09:57:51.504Z,99.90
2019-05-01T10:00:27.486Z,99.90
2019-05-01T10:02:57.178Z,99.90
2019-05-01T10:05:28.959Z,99.90
2019-05-01T10:08:00.071Z,99.90
2019-05-01T10:10:29.285Z,99.90
2019-05-01T10:13:00.167Z,99.90
2019-05-01T10:15:29.761Z,99.90
2019-05-01T10:17:59.269Z,99.90
2019-05-01T10:20:28.879Z,99.90
2019-05-01T10:22:58.401Z,99.90
2019-05-01T10:25:27.990Z,99.90
2019-05-01T10:28:07.135Z,99.90
2019-05-01T10:30:49.975Z,99.90
2019-05-01T10:33:22.306Z,99.90
2019-05-01T10:36:26.113Z,99.70
2019-05-01T10:38:55.938Z,99.90
2019-05-01T10:41:25.197Z,98.00
2019-05-01T10:43:54.580Z,97.80
2019-05-01T10:46:23.802Z,97.20
2019-05-01T10:48:53.447Z,97.40
2019-05-01T10:51:23.268Z,98.40
2019-05-01T10:53:52.477Z,94.80
2019-05-01T10:56:22.161Z,93.80
2019-05-01T10:58:51.709Z,93.70
2019-05-01T11:01:37.842Z,91.80
2019-05-01T11:04:07.111Z,91.50
2019-05-01T11:06:36.401Z,92.30
2019-05-01T11:09:07.034Z,89.50
2019-05-01T11:11:36.504Z,88.20
2019-05-01T11:14:06.337Z,90.90
2019-05-01T11:16:36.042Z,89.40
2019-05-01T11:19:05.353Z,90.40
2019-05-01T11:21:34.944Z,90.50
2019-05-01T11:24:04.461Z,88.20
2019-05-01T11:26:33.757Z,88.60
2019-05-01T11:29:03.202Z,87.50
2019-05-01T11:31:54.572Z,86.30
2019-05-01T11:34:46.596Z,85.10
2019-05-01T11:37:35.146Z,85.70
2019-05-01T11:40:13.591Z,84.00
2019-05-01T11:42:42.793Z,84.90
2019-05-01T11:45:12.372Z,83.50
2019-05-01T11:47:41.614Z,81.20
2019-05-01T11:50:11.124Z,81.60
2019-05-01T11:52:40.685Z,80.20
2019-05-01T11:55:11.462Z,78.40
2019-05-01T11:57:40.847Z,81.00
2019-05-01T12:00:12.051Z,78.20
2019-05-01T12:02:41.354Z,77.30
2019-05-01T12:05:10.858Z,78.20
2019-05-01T12:07:40.092Z,78.70
2019-05-01T12:10:14.287Z,76.30
2019-05-01T12:12:42.494Z,75.80
2019-05-01T12:15:12.450Z,76.90
2019-05-01T12:17:51.230Z,79.60
2019-05-01T12:20:22.265Z,77.50
2019-05-01T12:22:51.781Z,74.80
2019-05-01T12:25:21.090Z,71.90
2019-05-01T12:27:50.644Z,72.10
2019-05-01T12:30:20.561Z,72.40
2019-05-01T12:32:50.183Z,72.40
2019-05-01T12:35:19.527Z,73.10
2019-05-01T12:37:49.299Z,71.80
2019-05-01T12:40:21.449Z,70.10
2019-05-01T12:42:51.839Z,70.20
2019-05-01T12:45:21.376Z,68.90
2019-05-01T12:47:55.556Z,67.00
2019-05-01T12:50:25.208Z,65.20
2019-05-01T12:53:25.821Z,68.40
2019-05-01T12:56:24.177Z,66.10
2019-05-01T12:58:55.951Z,64.30
2019-05-01T13:01:27.705Z,64.10
2019-05-01T13:03:56.956Z,63.60
2019-05-01T13:06:26.345Z,64.30
2019-05-01T13:08:55.849Z,65.10
2019-05-01T13:11:25.355Z,61.00
2019-05-01T13:13:54.961Z,62.50
2019-05-01T13:16:24.892Z,59.80
2019-05-01T13:18:57.578Z,57.80
2019-05-01T13:21:26.878Z,58.60
2019-05-01T13:24:01.496Z,59.80
2019-05-01T13:26:45.098Z,59.70
2019-05-01T13:29:25.730Z,56.20
2019-05-01T13:32:00.228Z,53.80
2019-05-01T13:34:30.541Z,55.70
2019-05-01T13:37:03.129Z,57.10
2019-05-01T13:39:32.112Z,58.90
2019-05-01T13:42:01.738Z,59.00
2019-05-01T13:44:31.423Z,57.00
2019-05-01T13:47:01.043Z,56.30
2019-05-01T13:49:30.349Z,52.30
2019-05-01T13:52:00.010Z,53.90
2019-05-01T13:54:29.355Z,51.70
2019-05-01T13:56:58.953Z,51.00
2019-05-01T13:59:28.131Z,50.00
2019-05-01T14:01:57.779Z,50.40
2019-05-01T14:04:28.532Z,49.00
2019-05-01T14:06:58.510Z,46.60
2019-05-01T14:09:30.918Z,49.60
2019-05-01T14:12:00.261Z,50.60
2019-05-01T14:14:30.006Z,50.00
2019-05-01T14:17:00.379Z,49.70
2019-05-01T14:19:30.789Z,46.90
2019-05-01T14:22:23.457Z,47.70
2019-05-01T14:25:00.079Z,46.60
2019-05-01T14:27:39.260Z,46.60
2019-05-01T14:30:18.350Z,46.70
2019-05-01T14:32:54.687Z,49.60
2019-05-01T14:35:36.711Z,49.90
2019-05-01T14:38:20.981Z,51.70
2019-05-01T14:40:51.915Z,51.40
2019-05-01T14:43:21.867Z,49.20
2019-05-01T14:45:51.285Z,48.20
2019-05-01T14:48:20.616Z,49.00
2019-05-01T14:50:49.880Z,49.40
2019-05-01T14:53:19.130Z,49.70
2019-05-01T14:55:48.466Z,50.00
2019-05-01T14:58:18.038Z,48.60
2019-05-01T15:00:47.426Z,48.80
2019-05-01T15:03:16.942Z,48.20
2019-05-01T15:05:46.377Z,47.10
2019-05-01T15:08:15.678Z,46.80
2019-05-01T15:10:44.940Z,47.80
2019-05-01T15:13:32.623Z,47.40
2019-05-01T15:16:09.981Z,47.30
2019-05-01T15:18:49.333Z,46.80
2019-05-01T15:21:18.823Z,46.60
2019-05-01T15:23:53.697Z,46.30
2019-05-01T15:26:19.470Z,44.40
2019-05-01T15:28:49.153Z,43.40
2019-05-01T15:31:18.887Z,43.80
2019-05-01T15:33:48.109Z,43.80
2019-05-01T15:36:17.405Z,42.30
2019-05-01T15:38:46.658Z,44.10
2019-05-01T15:41:33.793Z,43.60
2019-05-01T15:44:18.037Z,42.80
2019-05-01T15:46:48.021Z,43.20
2019-05-01T15:49:17.599Z,41.80
2019-05-01T15:51:47.219Z,41.30
2019-05-01T15:54:17.772Z,40.50
2019-05-01T15:56:47.376Z,39.40
2019-05-01T15:59:19.952Z,39.80
2019-05-01T16:01:50.460Z,40.90
2019-05-01T16:04:21.579Z,39.50
2019-05-01T16:06:55.186Z,37.60
2019-05-01T16:09:26.041Z,38.20
2019-05-01T16:12:15.962Z,37.10
2019-05-01T16:14:48.216Z,36.40
2019-05-01T16:17:18.589Z,36.20
2019-05-01T16:19:50.681Z,36.30
2019-05-01T16:22:24.267Z,36.20
2019-05-01T16:25:05.293Z,35.10
2019-05-01T16:27:41.937Z,35.50
2019-05-01T16:30:14.189Z,34.50
2019-05-01T16:32:46.322Z,34.80
2019-05-01T16:35:16.625Z,34.40
2019-05-01T16:37:46.192Z,34.20
2019-05-01T16:40:47.218Z,33.90
2019-05-01T16:43:16.822Z,34.40
2019-05-01T16:45:46.839Z,33.90
2019-05-01T16:48:16.450Z,33.80
2019-05-01T16:50:45.805Z,34.60
2019-05-01T16:53:15.026Z,32.90
2019-05-01T16:55:44.797Z,33.20
2019-05-01T16:58:15.277Z,34.10
2019-05-01T17:01:06.566Z,34.00
2019-05-01T17:03:53.584Z,33.40
2019-05-01T17:06:45.233Z,33.00
2019-05-01T17:09:32.911Z,32.70
2019-05-01T17:12:02.257Z,32.90
2019-05-01T17:14:31.493Z,33.60
2019-05-01T17:17:01.401Z,31.40
2019-05-01T17:19:30.814Z,31.50
2019-05-01T17:22:00.132Z,31.90
2019-05-01T17:24:29.476Z,31.10
2019-05-01T17:26:58.817Z,31.30
2019-05-01T17:29:28.408Z,31.90
2019-05-01T17:31:57.801Z,33.30
2019-05-01T17:34:30.684Z,33.20
2019-05-01T17:36:58.187Z,33.20
2019-05-01T17:39:27.449Z,33.30
2019-05-01T17:41:57.608Z,33.70
2019-05-01T17:44:28.170Z,35.20
2019-05-01T17:46:57.542Z,35.10
2019-05-01T17:49:27.122Z,37.60
2019-05-01T17:51:56.394Z,38.30
2019-05-01T17:54:25.699Z,39.50
2019-05-01T17:56:55.768Z,40.10
2019-05-01T17:59:25.154Z,40.80
2019-05-01T18:02:19.640Z,42.00
2019-05-01T18:04:59.080Z,42.70
2019-05-01T18:07:33.211Z,42.50
2019-05-01T18:10:00.485Z,43.80
2019-05-01T18:12:30.263Z,44.10
2019-05-01T18:14:59.783Z,43.80
2019-05-01T18:17:29.058Z,43.90
2019-05-01T18:19:58.252Z,44.40
2019-05-01T18:22:47.375Z,45.00
2019-05-01T18:25:28.143Z,45.70
2019-05-01T18:28:15.984Z,47.40
2019-05-01T18:30:45.946Z,48.10
2019-05-01T18:33:15.969Z,48.30
2019-05-01T18:35:49.228Z,48.70
2019-05-01T18:38:26.382Z,49.10
2019-05-01T18:41:04.807Z,49.30
2019-05-01T18:43:34.169Z,49.80
2019-05-01T18:46:08.006Z,50.50
2019-05-01T18:48:37.142Z,51.20
2019-05-01T18:51:07.197Z,51.80
2019-05-01T18:53:36.527Z,52.40
2019-05-01T18:56:07.565Z,53.20
2019-05-01T18:58:37.333Z,54.00
2019-05-01T19:01:09.333Z,54.30
2019-05-01T19:03:42.513Z,54.70
2019-05-01T19:06:10.709Z,55.00
2019-05-01T19:08:40.270Z,55.40
2019-05-01T19:11:12.658Z,55.40
2019-05-01T19:13:42.878Z,55.30
2019-05-01T19:16:12.567Z,55.30
2019-05-01T19:18:42.433Z,55.30
2019-05-01T19:21:13.891Z,55.80
2019-05-01T19:23:43.557Z,55.70
2019-05-01T19:26:13.637Z,56.10
2019-05-01T19:28:42.873Z,56.30
2019-05-01T19:31:12.501Z,56.20
2019-05-01T19:33:41.994Z,56.70
2019-05-01T19:36:11.496Z,57.00
2019-05-01T19:38:41.186Z,57.30
2019-05-01T19:41:14.090Z,57.90
2019-05-01T19:43:42.173Z,57.90
2019-05-01T19:46:12.037Z,58.10
2019-05-01T19:48:45.291Z,59.00
2019-05-01T19:51:13.074Z,58.90
2019-05-01T19:53:46.494Z,59.50
2019-05-01T19:56:16.602Z,60.00
2019-05-01T19:58:44.943Z,60.10
2019-05-01T20:01:14.771Z,60.10
2019-05-01T20:03:44.159Z,60.00
2019-05-01T20:06:13.839Z,60.30
2019-05-01T20:08:44.441Z,59.80
2019-05-01T20:11:18.736Z,60.50
2019-05-01T20:13:50.732Z,60.80
2019-05-01T20:16:22.371Z,61.00
2019-05-01T20:18:53.707Z,60.80
2019-05-01T20:21:23.977Z,61.60
2019-05-01T20:23:53.625Z,61.80
2019-05-01T20:26:26.958Z,62.00
2019-05-01T20:29:00.411Z,62.30
2019-05-01T20:31:32.567Z,62.80
2019-05-01T20:34:00.701Z,63.60
2019-05-01T20:36:30.147Z,64.40
2019-05-01T20:39:01.887Z,64.90
2019-05-01T20:41:32.195Z,65.60
2019-05-01T20:44:02.043Z,65.90
2019-05-01T20:46:31.941Z,66.50
2019-05-01T20:49:06.537Z,67.20
2019-05-01T20:51:38.331Z,68.50
2019-05-01T20:54:09.304Z,68.90
2019-05-01T20:56:50.317Z,68.60
2019-05-01T20:59:20.511Z,69.70
2019-05-01T21:01:50.755Z,70.30
2019-05-01T21:04:38.109Z,70.60
2019-05-01T21:07:21.347Z,70.80
2019-05-01T21:09:56.812Z,71.50
2019-05-01T21:12:22.467Z,72.00
2019-05-01T21:14:51.928Z,73.30
2019-05-01T21:17:21.803Z,74.80
2019-05-01T21:19:51.477Z,75.70
2019-05-01T21:22:23.378Z,76.40
2019-05-01T21:24:55.572Z,78.30
2019-05-01T21:27:25.277Z,80.10
2019-05-01T21:29:55.082Z,82.00
2019-05-01T21:32:27.475Z,83.70
2019-05-01T21:34:56.138Z,85.00
2019-05-01T21:37:25.817Z,87.20
2019-05-01T21:39:56.432Z,89.60
2019-05-01T21:42:26.298Z,90.80
2019-05-01T21:44:55.831Z,92.10
2019-05-01T21:47:26.238Z,92.60
2019-05-01T21:49:58.363Z,93.60
2019-05-01T21:52:28.093Z,94.30
2019-05-01T21:54:57.763Z,95.50
2019-05-01T21:57:29.909Z,96.70
2019-05-01T21:59:58.942Z,99.00
2019-05-01T22:02:29.006Z,99.90
2019-05-01T22:05:03.876Z,99.90
2019-05-01T22:07:30.102Z,99.90
2019-05-01T22:10:01.456Z,99.90
2019-05-01T22:12:31.196Z,99.90
2019-05-01T22:15:11.072Z,99.90
2019-05-01T22:17:57.987Z,99.90
2019-05-01T22:20:42.197Z,99.90
2019-05-01T22:23:17.165Z,99.90
2019-05-01T22:25:52.163Z,99.90
2019-05-01T22:28:31.030Z,99.90
2019-05-01T22:31:21.727Z,99.90
2019-05-01T22:34:01.124Z,99.90
2019-05-01T22:36:31.128Z,99.90
2019-05-01T22:39:02.194Z,99.90
2019-05-01T22:41:32.657Z,99.90
2019-05-01T22:44:04.242Z,99.90
2019-05-01T22:46:38.909Z,99.90
2019-05-01T22:49:05.851Z,99.90
2019-05-01T22:51:35.358Z,99.90
2019-05-01T22:54:05.535Z,99.90
2019-05-01T22:56:35.466Z,99.90
2019-05-01T22:59:08.616Z,99.90
2019-05-01T23:01:38.916Z,99.90
2019-05-01T23:04:12.191Z,99.90
2019-05-01T23:06:41.740Z,99.90
2019-05-01T23:09:16.647Z,99.90
2019-05-01T23:11:47.831Z,99.90
2019-05-01T23:14:18.289Z,99.90
2019-05-01T23:17:07.347Z,99.90
2019-05-01T23:19:40.781Z,99.90
2019-05-01T23:22:10.721Z,99.90
2019-05-01T23:24:40.695Z,99.90
2019-05-01T23:27:10.397Z,99.90
2019-05-01T23:29:40.466Z,99.90
2019-05-01T23:32:10.662Z,99.90
2019-05-01T23:34:40.890Z,99.90
2019-05-01T23:37:10.460Z,99.90
2019-05-01T23:39:59.454Z,99.90
2019-05-01T23:42:29.125Z,99.90
2019-05-01T23:44:58.975Z,99.90
2019-05-01T23:47:29.225Z,99.90
2019-05-01T23:50:01.991Z,99.90
2019-05-01T23:52:33.984Z,99.90
2019-05-01T23:55:03.321Z,99.90
2019-05-01T23:57:34.194Z,99.90
